Rize — 9HA2781 — position and weather

sailwx.info

Track history (hours):
 
Tides and Currents Weather Stations Pressure Air Temp Water Temp Dewpoint Dewpoint Depression Visibility Wind Speed Wind Dir Waves Ship Positions

Rize

Last reported at 2017-Jul-12 19:51 UTC. Time now 2017-Jul-23 22:44 UTC.
Position N 09°11' W 079°53'.
Warning: this ship's position is 11 days out of date.

Length 229 m; draft 13.5 m.

Type: Cargo ship. MMSI: 215677000.

Date/timePositionNaut miles runAvg speedWind from/ knotsBaromVisibWave heightAir tempDewpointWater temp
2017-Jul-12 19:51N 09°11' W 079°53'4 7.3
2017-Jul-12 19:20N 09°14' W 079°56'0 0.4
2017-Jul-12 19:01N 09°14' W 079°56'0 0.0
2017-Jul-12 17:55N 09°14' W 079°56'0 0.0
2017-Jul-12 15:55N 09°14' W 079°56'0 0.0
2017-Jul-12 13:52N 09°14' W 079°56'0 0.0
2017-Jul-12 13:28N 09°14' W 079°56'0 0.1
2017-Jul-12 12:58N 09°14' W 079°56'0 0.1
2017-Jul-12 12:28N 09°14' W 079°56'0 0.1
2017-Jul-12 11:49N 09°14' W 079°56'0 0.1
2017-Jul-12 11:19N 09°14' W 079°56'0 0.1
2017-Jul-12 10:58N 09°14' W 079°56'0 0.0
2017-Jul-12 10:25N 09°14' W 079°56'0 0.0
2017-Jul-12 09:57N 09°14' W 079°56'0 0.0
2017-Jul-12 09:07N 09°14' W 079°56'0 0.1
2017-Jul-12 09:01N 09°14' W 079°56'0 0.1
2017-Jul-12 08:30N 09°14' W 079°56'0 0.0
2017-Jul-12 07:40N 09°14' W 079°56'0 0.0
2017-Jul-12 07:22N 09°14' W 079°56'0 0.0
2017-Jul-12 06:25N 09°14' W 079°56'0 0.1
2017-Jul-12 05:49N 09°14' W 079°56'0 0.0
2017-Jul-12 05:19N 09°14' W 079°56'0 0.0
2017-Jul-12 03:52N 09°14' W 079°56'0 0.0
2017-Jul-12 03:30N 09°14' W 079°56'2 3.2
2017-Jul-12 02:51N 09°16' W 079°55'0 0.8
2017-Jul-12 02:30N 09°16' W 079°55'0 0.2
2017-Jul-12 02:00N 09°16' W 079°55'0 0.3
2017-Jul-12 01:29N 09°16' W 079°55'0 0.5
2017-Jul-12 01:00N 09°17' W 079°55'0 0.0
2017-Jul-12 00:30N 09°17' W 079°55'0 0.8
2017-Jul-12 00:00N 09°17' W 079°55'2 3.5
2017-Jul-11 23:30N 09°19' W 079°55'2 4.8
2017-Jul-11 23:00N 09°21' W 079°55'3 5.9
2017-Jul-11 22:30N 09°24' W 079°55'4 8.1
2017-Jul-11 22:00N 09°28' W 079°56'1 0.1
2017-Jul-11 14:59N 09°28' W 079°56'0 0.0
2017-Jul-11 14:20N 09°28' W 079°56'0 0.0
2017-Jul-11 13:59N 09°28' W 079°56'0 0.0
2017-Jul-11 13:17N 09°28' W 079°56'0 0.1
2017-Jul-11 12:59N 09°28' W 079°56'0 0.0
2017-Jul-11 11:32N 09°28' W 079°56'0 0.2
2017-Jul-11 11:29N 09°28' W 079°56'0 0.0
2017-Jul-11 10:59N 09°28' W 079°56'0 0.0
2017-Jul-11 10:14N 09°28' W 079°56'0 0.1
2017-Jul-11 09:59N 09°28' W 079°56'0 0.0
2017-Jul-11 08:23N 09°28' W 079°56'0 0.0
2017-Jul-11 07:32N 09°28' W 079°56'0 0.0
2017-Jul-11 07:14N 09°28' W 079°56'0 0.0
2017-Jul-11 06:02N 09°28' W 079°56'0 0.0
2017-Jul-11 04:29N 09°28' W 079°56'0 0.0
2017-Jul-11 03:59N 09°28' W 079°56'0 0.0
2017-Jul-11 02:11N 09°28' W 079°56'0 0.1
2017-Jul-11 01:56N 09°28' W 079°56'0 0.0
2017-Jul-11 01:29N 09°28' W 079°56'0 0.0
2017-Jul-11 00:11N 09°28' W 079°56'0 0.0
2017-Jul-10 22:29N 09°28' W 079°56'0 0.0
2017-Jul-10 21:59N 09°28' W 079°56'0 0.0
2017-Jul-10 21:17N 09°28' W 079°56'0 0.0
2017-Jul-10 18:53N 09°28' W 079°56'0 0.0
2017-Jul-10 15:32N 09°28' W 079°56'0 0.7
2017-Jul-10 15:26N 09°28' W 079°56'1 1.7
2017-Jul-10 15:00N 09°28' W 079°56'  
2017-Jul-04 21:21N 09°33' W 079°48'514.7
2017-Jul-04 21:00N 09°29' W 079°52'713.8
2017-Jul-04 20:30N 09°23' W 079°55'5 9.3
2017-Jul-04 20:00N 09°18' W 079°55'2 3.1
2017-Jul-04 19:30N 09°17' W 079°55'0 0.6
2017-Jul-04 19:00N 09°16' W 079°55'0 0.8
2017-Jul-04 18:30N 09°16' W 079°55'2 4.8
2017-Jul-04 18:00N 09°13' W 079°55'  
Track history (hours):
 
Tides and Currents Weather Stations Pressure Air Temp Water Temp Dewpoint Dewpoint Depression Visibility Wind Speed Wind Dir Waves Ship Positions

Rize

Last reported at 2017-Jul-12 19:51 UTC. Time now 2017-Jul-23 22:44 UTC.
Position N 09°11' W 079°53'.
Warning: this ship's position is 11 days out of date.

Length 229 m; draft 13.5 m.

Type: Cargo ship. MMSI: 215677000.

Date/timePositionNaut miles runAvg speedWind from/ knotsBaromVisibWave heightAir tempDewpointWater temp
2017-Jul-12 19:51N 09°11' W 079°53'4 7.3
2017-Jul-12 19:20N 09°14' W 079°56'0 0.4
2017-Jul-12 19:01N 09°14' W 079°56'0 0.0
2017-Jul-12 17:55N 09°14' W 079°56'0 0.0
2017-Jul-12 15:55N 09°14' W 079°56'0 0.0
2017-Jul-12 13:52N 09°14' W 079°56'0 0.0
2017-Jul-12 13:28N 09°14' W 079°56'0 0.1
2017-Jul-12 12:58N 09°14' W 079°56'0 0.1
2017-Jul-12 12:28N 09°14' W 079°56'0 0.1
2017-Jul-12 11:49N 09°14' W 079°56'0 0.1
2017-Jul-12 11:19N 09°14' W 079°56'0 0.1
2017-Jul-12 10:58N 09°14' W 079°56'0 0.0
2017-Jul-12 10:25N 09°14' W 079°56'0 0.0
2017-Jul-12 09:57N 09°14' W 079°56'0 0.0
2017-Jul-12 09:07N 09°14' W 079°56'0 0.1
2017-Jul-12 09:01N 09°14' W 079°56'0 0.1
2017-Jul-12 08:30N 09°14' W 079°56'0 0.0
2017-Jul-12 07:40N 09°14' W 079°56'0 0.0
2017-Jul-12 07:22N 09°14' W 079°56'0 0.0
2017-Jul-12 06:25N 09°14' W 079°56'0 0.1
2017-Jul-12 05:49N 09°14' W 079°56'0 0.0
2017-Jul-12 05:19N 09°14' W 079°56'0 0.0
2017-Jul-12 03:52N 09°14' W 079°56'0 0.0
2017-Jul-12 03:30N 09°14' W 079°56'2 3.2
2017-Jul-12 02:51N 09°16' W 079°55'0 0.8
2017-Jul-12 02:30N 09°16' W 079°55'0 0.2
2017-Jul-12 02:00N 09°16' W 079°55'0 0.3
2017-Jul-12 01:29N 09°16' W 079°55'0 0.5
2017-Jul-12 01:00N 09°17' W 079°55'0 0.0
2017-Jul-12 00:30N 09°17' W 079°55'0 0.8
2017-Jul-12 00:00N 09°17' W 079°55'2 3.5
2017-Jul-11 23:30N 09°19' W 079°55'2 4.8
2017-Jul-11 23:00N 09°21' W 079°55'3 5.9
2017-Jul-11 22:30N 09°24' W 079°55'4 8.1
2017-Jul-11 22:00N 09°28' W 079°56'1 0.1
2017-Jul-11 14:59N 09°28' W 079°56'0 0.0
2017-Jul-11 14:20N 09°28' W 079°56'0 0.0
2017-Jul-11 13:59N 09°28' W 079°56'0 0.0
2017-Jul-11 13:17N 09°28' W 079°56'0 0.1
2017-Jul-11 12:59N 09°28' W 079°56'0 0.0
2017-Jul-11 11:32N 09°28' W 079°56'0 0.2
2017-Jul-11 11:29N 09°28' W 079°56'0 0.0
2017-Jul-11 10:59N 09°28' W 079°56'0 0.0
2017-Jul-11 10:14N 09°28' W 079°56'0 0.1
2017-Jul-11 09:59N 09°28' W 079°56'0 0.0
2017-Jul-11 08:23N 09°28' W 079°56'0 0.0
2017-Jul-11 07:32N 09°28' W 079°56'0 0.0
2017-Jul-11 07:14N 09°28' W 079°56'0 0.0
2017-Jul-11 06:02N 09°28' W 079°56'0 0.0
2017-Jul-11 04:29N 09°28' W 079°56'0 0.0
2017-Jul-11 03:59N 09°28' W 079°56'0 0.0
2017-Jul-11 02:11N 09°28' W 079°56'0 0.1
2017-Jul-11 01:56N 09°28' W 079°56'0 0.0
2017-Jul-11 01:29N 09°28' W 079°56'0 0.0
2017-Jul-11 00:11N 09°28' W 079°56'0 0.0
2017-Jul-10 22:29N 09°28' W 079°56'0 0.0
2017-Jul-10 21:59N 09°28' W 079°56'0 0.0
2017-Jul-10 21:17N 09°28' W 079°56'0 0.0
2017-Jul-10 18:53N 09°28' W 079°56'0 0.0
2017-Jul-10 15:32N 09°28' W 079°56'0 0.7
2017-Jul-10 15:26N 09°28' W 079°56'1 1.7
2017-Jul-10 15:00N 09°28' W 079°56'  
2017-Jul-04 21:21N 09°33' W 079°48'514.7
2017-Jul-04 21:00N 09°29' W 079°52'713.8
2017-Jul-04 20:30N 09°23' W 079°55'5 9.3
2017-Jul-04 20:00N 09°18' W 079°55'2 3.1
2017-Jul-04 19:30N 09°17' W 079°55'0 0.6
2017-Jul-04 19:00N 09°16' W 079°55'0 0.8
2017-Jul-04 18:30N 09°16' W 079°55'2 4.8
2017-Jul-04 18:00N 09°13' W 079°55'  

Dump ship's entire track history